Port-of-Spain, Trinidad and Tobago
Current Conditions -  °F | °C
As of 12:00 PM on Thursday 30 Oct 2014 (Local Time) from TTPP Reporting Station
Scattered Clouds Scattered Clouds  
Wind Chill: 91°   Ceiling: Unl
Heat Index: 102°   Visibility: 6mi
Dew Point: 75°   Wind: 9mph
Humidity: 59%   Direction: 110°ESE
Pressure: 29.83"   Gusts: NA
Location:  10.66°N, 61.51°W
Report Text: TTPP 301600Z 11008KT 9999 SCT018 33/24 Q1010 NOSIG
Loading
Personal Weather Stations






























Interactive Weather Map
Tropical Storm Tracking
New forecast layout! Learn more

10-Day Weather Forecast

Advertisements
Track Severe Weather on mobile